Providence, Rhode Island
Traffic Map
Current Weather Conditions
Providence, Rhode Island
Few Clouds
Few Clouds
20°
Feels Like: 20°
Wind Chill: 20° Ceiling: Unl
Heat Index: 20° Visibility: 10mi
Dew Point: 17° Wind: 7mph
Humidity: 81% Direction: 200° (SSW)
Pressure: 30.18in Gusts: 0mph
Raw Report DataKPVD 010151Z 20006KT 10SM FEW250 20/17 A3018 RMK AO2 SLP219 T02000167
Traffic Incident Summary
Active as of:
Severity:
Category:
InformationThere was an issue retrieving the traffic information for this location. Please try a different location or try again shortly.
Advertisements
Track Severe Weather on mobile